Waddams Grove, Illinois
Current Conditions -  °F | °C
As of 10:15 PM on Tuesday 21 Oct 2014 (Local Time) from KFEP Reporting Station
Clear Clear  
Wind Chill: 35°   Ceiling: Unl
Heat Index: 35°   Visibility: 10mi
Dew Point: 33°   Wind: 0mph
Humidity: 91%   Direction: NA
Pressure: 30.29"   Gusts: NA
Location:  42.3875°N, 89.8373°W
Report Text: KFEP 220315Z AUTO 00000KT 10SM CLR 02/01 A3029 RMK AO2 T00190006
Loading
Personal Weather Stations






























Interactive Weather Map
Tropical Storm Tracking
New forecast layout! Learn more

10-Day Weather Forecast

Advertisements
Track Severe Weather on mobile